Time;durP1;ratioP1;P1;durP2;ratioP2;P2;SDS_P1;SDS_P2;PMS_P1;PMS_P2;Temp;Humidity;BMP_temperature;BMP_pressure;BME280_temperature;BME280_humidity;BME280_pressure;Samples;Min_cycle;Max_cycle;Signal;HPM_P1;HPM_P2
2022/02/16 00:00:39;;;;;;;;;;;;;;;;;;5082941;28;19992;-68
2022/02/16 00:03:05;;;;;;;;;;;;;;;;;;5089094;28;19927;-68
2022/02/16 00:05:31;;;;;;;;;;;;;;;;;;5086210;28;19912;-68
2022/02/16 00:07:57;;;;;;;;;;;;;;;;;;5083117;28;19915;-68
2022/02/16 00:10:22;;;;;;;;;;;;;;;;;;5082955;28;20190;-67
2022/02/16 00:12:48;;;;;;;;;;;;;;;;;;5082967;28;20000;-68
2022/02/16 00:15:14;;;;;;;;;;;;;;;;;;5086983;28;20096;-68
2022/02/16 00:17:40;;;;;;;;;;;;;;;;;;5086138;28;20381;-68
2022/02/16 00:20:06;;;;;;;;;;;;;;;;;;5082787;28;20313;-68
2022/02/16 00:22:32;;;;;;;;;;;;;;;;;;5082806;28;19998;-68
2022/02/16 00:24:58;;;;;;;;;;;;;;;;;;5082575;28;19916;-68
2022/02/16 00:27:24;;;;;;;;;;;;;;;;;;5084186;28;19967;-68
2022/02/16 00:29:49;;;;;;;;;;;;;;;;;;5089344;28;19916;-68
2022/02/16 00:32:15;;;;;;;;;;;;;;;;;;5082701;28;20283;-66
2022/02/16 00:34:41;;;;;;;;;;;;;;;;;;5081748;28;19914;-66
2022/02/16 00:37:07;;;;;;;;;;;;;;;;;;5082673;28;19958;-68
2022/02/16 00:39:33;;;;;;;;;;;;;;;;;;5082698;28;19909;-67
2022/02/16 00:41:59;;;;;;;;;;;;;;;;;;5093307;28;19935;-67
2022/02/16 00:44:25;;;;;;;;;;;;;;;;;;5088461;28;19957;-67
2022/02/16 00:46:51;;;;;;;;;;;;;;;;;;5086223;28;19908;-66
2022/02/16 00:49:17;;;;;;;;;;;;;;;;;;5085970;28;19911;-66
2022/02/16 00:51:44;;;;;;;;;;;;;;;;;;5086166;28;20368;-67
2022/02/16 00:54:10;;;;;;;;;;;;;;;;;;5091695;28;19904;-66
2022/02/16 00:56:36;;;;;;;;;;;;;;;;;;5089421;28;19904;-66
2022/02/16 00:59:02;;;;;;;;;;;;;;;;;;5086143;28;19908;-66
2022/02/16 01:01:28;;;;;;;;;;;;;;;;;;5085680;28;19915;-66
2022/02/16 01:03:53;;;;;;;;;;;;;;;;;;5086376;28;19912;-68
2022/02/16 01:06:19;;;;;;;;;;;;;;;;;;5088671;28;19999;-66
2022/02/16 01:08:45;;;;;;;;;;;;;;;;;;5091598;28;19904;-66
2022/02/16 01:11:11;;;;;;;;;;;;;;;;;;5085750;28;19923;-66
2022/02/16 01:13:37;;;;;;;;;;;;;;;;;;5086068;28;19908;-67
2022/02/16 01:16:03;;;;;;;;;;;;;;;;;;5085121;28;19977;-66
2022/02/16 01:18:29;;;;;;;;;;;;;;;;;;5086415;28;19908;-67
2022/02/16 01:20:55;;;;;;;;;;;;;;;;;;5084602;28;19999;-66
2022/02/16 01:23:21;;;;;;;;;;;;;;;;;;5085921;28;20381;-66
2022/02/16 01:25:46;;;;;;;;;;;;;;;;;;5085681;28;19991;-67
2022/02/16 01:28:12;;;;;;;;;;;;;;;;;;5085672;28;20022;-67
2022/02/16 01:30:38;;;;;;;;;;;;;;;;;;5084825;28;20429;-66
2022/02/16 01:33:04;;;;;;;;;;;;;;;;;;5092064;28;19904;-66
2022/02/16 01:35:30;;;;;;;;;;;;;;;;;;5087627;28;19944;-66
2022/02/16 01:37:56;;;;;;;;;;;;;;;;;;5085508;28;20002;-66
2022/02/16 01:40:22;;;;;;;;;;;;;;;;;;5085237;28;19955;-66
2022/02/16 01:42:48;;;;;;;;;;;;;;;;;;5085061;28;20364;-66
2022/02/16 01:45:14;;;;;;;;;;;;;;;;;;5090260;28;19915;-67
2022/02/16 01:47:40;;;;;;;;;;;;;;;;;;5089181;28;19947;-66
2022/02/16 01:50:06;;;;;;;;;;;;;;;;;;5084921;28;19911;-67
2022/02/16 01:52:31;;;;;;;;;;;;;;;;;;5084340;28;20067;-67
2022/02/16 01:54:57;;;;;;;;;;;;;;;;;;5084738;28;19904;-67
2022/02/16 01:57:23;;;;;;;;;;;;;;;;;;5086804;28;19935;-66
2022/02/16 01:59:49;;;;;;;;;;;;;;;;;;5091768;28;20585;-66
2022/02/16 02:02:15;;;;;;;;;;;;;;;;;;5084986;28;19990;-66
2022/02/16 02:04:41;;;;;;;;;;;;;;;;;;5085053;28;19908;-66
2022/02/16 02:07:07;;;;;;;;;;;;;;;;;;5084259;28;19904;-67
2022/02/16 02:09:33;;;;;;;;;;;;;;;;;;5084938;28;20337;-67
2022/02/16 02:11:59;;;;;;;;;;;;;;;;;;5092896;28;19915;-66
2022/02/16 02:14:24;;;;;;;;;;;;;;;;;;5085301;28;19915;-67
2022/02/16 02:16:50;;;;;;;;;;;;;;;;;;5084447;28;19990;-66
2022/02/16 02:19:16;;;;;;;;;;;;;;;;;;5085838;28;21105;-66
2022/02/16 02:21:42;;;;;;;;;;;;;;;;;;5084653;28;19917;-67
2022/02/16 02:24:09;;;;;;;;;;;;;;;;;;5088594;28;19908;-67
2022/02/16 02:26:35;;;;;;;;;;;;;;;;;;5087266;28;19943;-66
2022/02/16 02:29:01;;;;;;;;;;;;;;;;;;5084520;28;19962;-66
2022/02/16 02:31:27;;;;;;;;;;;;;;;;;;5085846;28;19912;-66
2022/02/16 02:33:53;;;;;;;;;;;;;;;;;;5084502;28;19920;-66
2022/02/16 02:36:18;;;;;;;;;;;;;;;;;;5087423;28;20100;-66
2022/02/16 02:38:44;;;;;;;;;;;;;;;;;;5089528;28;20316;-67
2022/02/16 02:41:10;;;;;;;;;;;;;;;;;;5084157;28;19915;-66
2022/02/16 02:43:36;;;;;;;;;;;;;;;;;;5084183;28;19908;-66
2022/02/16 02:46:02;;;;;;;;;;;;;;;;;;5083910;28;19939;-66
2022/02/16 02:48:28;;;;;;;;;;;;;;;;;;5084543;28;19954;-67
2022/02/16 02:50:54;;;;;;;;;;;;;;;;;;5091846;28;19916;-66
2022/02/16 02:53:20;;;;;;;;;;;;;;;;;;5083388;28;19908;-66
2022/02/16 02:55:46;;;;;;;;;;;;;;;;;;5083241;28;19977;-67
2022/02/16 02:58:12;;;;;;;;;;;;;;;;;;5084155;28;20002;-66
2022/02/16 03:00:37;;;;;;;;;;;;;;;;;;5084252;28;19915;-66
2022/02/16 03:03:03;;;;;;;;;;;;;;;;;;5090585;28;19911;-66
2022/02/16 03:05:29;;;;;;;;;;;;;;;;;;5085573;28;19943;-67
2022/02/16 03:07:55;;;;;;;;;;;;;;;;;;5083603;28;19915;-68
2022/02/16 03:10:21;;;;;;;;;;;;;;;;;;5083305;28;19923;-66
2022/02/16 03:12:47;;;;;;;;;;;;;;;;;;5084493;28;20427;-67
2022/02/16 03:15:13;;;;;;;;;;;;;;;;;;5088381;28;19957;-67
2022/02/16 03:17:39;;;;;;;;;;;;;;;;;;5086958;28;19915;-67
2022/02/16 03:20:04;;;;;;;;;;;;;;;;;;5082901;28;20007;-68
2022/02/16 03:22:30;;;;;;;;;;;;;;;;;;5083424;28;19974;-68
2022/02/16 03:24:56;;;;;;;;;;;;;;;;;;5083404;28;19908;-68
2022/02/16 03:27:22;;;;;;;;;;;;;;;;;;5085377;28;20307;-68
2022/02/16 03:29:48;;;;;;;;;;;;;;;;;;5089478;28;19948;-68
2022/02/16 03:32:14;;;;;;;;;;;;;;;;;;5083434;28;19908;-67
2022/02/16 03:34:40;;;;;;;;;;;;;;;;;;5082765;28;19908;-68
2022/02/16 03:37:05;;;;;;;;;;;;;;;;;;5083527;28;19925;-68
2022/02/16 03:39:31;;;;;;;;;;;;;;;;;;5083161;28;19930;-68
2022/02/16 03:41:57;;;;;;;;;;;;;;;;;;5091337;28;20264;-68
2022/02/16 03:44:23;;;;;;;;;;;;;;;;;;5083430;28;20764;-68
2022/02/16 03:46:51;;;;;;;;;;;;;;;;;;5083061;28;19923;-68
2022/02/16 03:49:17;;;;;;;;;;;;;;;;;;5083040;28;19953;-68
2022/02/16 03:51:43;;;;;;;;;;;;;;;;;;5083150;28;20315;-68
2022/02/16 03:54:09;;;;;;;;;;;;;;;;;;5088403;28;19962;-68
2022/02/16 03:56:35;;;;;;;;;;;;;;;;;;5085950;28;19904;-68
2022/02/16 03:59:00;;;;;;;;;;;;;;;;;;5082993;28;19908;-68
2022/02/16 04:01:26;;;;;;;;;;;;;;;;;;5083109;28;19915;-68
2022/02/16 04:03:52;;;;;;;;;;;;;;;;;;5082546;28;19908;-67
2022/02/16 04:06:18;;;;;;;;;;;;;;;;;;5086574;28;19994;-68
2022/02/16 04:08:44;;;;;;;;;;;;;;;;;;5087681;28;19958;-68
2022/02/16 04:11:10;;;;;;;;;;;;;;;;;;5082863;28;19967;-68
2022/02/16 04:13:36;;;;;;;;;;;;;;;;;;5082511;28;19995;-66
2022/02/16 04:16:02;;;;;;;;;;;;;;;;;;5084507;28;19908;-67
2022/02/16 04:18:27;;;;;;;;;;;;;;;;;;5088197;28;19908;-67
2022/02/16 04:20:53;;;;;;;;;;;;;;;;;;5094056;28;20307;-66
2022/02/16 04:23:19;;;;;;;;;;;;;;;;;;5086882;28;19965;-67
2022/02/16 04:25:45;;;;;;;;;;;;;;;;;;5086968;28;19990;-67
2022/02/16 04:28:11;;;;;;;;;;;;;;;;;;5086736;28;19915;-67
2022/02/16 04:30:37;;;;;;;;;;;;;;;;;;5086620;28;19916;-67
2022/02/16 04:33:03;;;;;;;;;;;;;;;;;;5093695;28;19908;-67
2022/02/16 04:35:29;;;;;;;;;;;;;;;;;;5076707;28;19919;-67
2022/02/16 04:37:55;;;;;;;;;;;;;;;;;;5074054;28;19913;-67
2022/02/16 04:40:20;;;;;;;;;;;;;;;;;;5075097;28;20373;-68
2022/02/16 04:42:46;;;;;;;;;;;;;;;;;;5072908;28;19915;-67
2022/02/16 04:45:12;;;;;;;;;;;;;;;;;;5074024;28;20443;-67
2022/02/16 04:47:38;;;;;;;;;;;;;;;;;;5076506;28;20418;-68
2022/02/16 04:50:04;;;;;;;;;;;;;;;;;;5074669;28;19916;-68
2022/02/16 04:52:36;;;;;;;;;;;;;;;;;;5087117;28;19915;-68
2022/02/16 04:55:02;;;;;;;;;;;;;;;;;;5072853;28;20299;-67
2022/02/16 04:57:28;;;;;;;;;;;;;;;;;;5073453;28;19908;-67
2022/02/16 04:59:58;;;;;;;;;;;;;;;;;;5075852;28;19911;-67
2022/02/16 05:02:24;;;;;;;;;;;;;;;;;;5074880;28;19951;-67
2022/02/16 05:04:50;;;;;;;;;;;;;;;;;;5074631;28;19908;-67
2022/02/16 05:07:16;;;;;;;;;;;;;;;;;;5073861;28;19916;-67
2022/02/16 05:09:42;;;;;;;;;;;;;;;;;;5072570;28;20256;-67
2022/02/16 05:12:08;;;;;;;;;;;;;;;;;;5074037;28;19955;-72
2022/02/16 05:14:34;;;;;;;;;;;;;;;;;;5071879;28;19912;-71
2022/02/16 05:17:00;;;;;;;;;;;;;;;;;;5072435;28;19915;-72
2022/02/16 05:19:26;;;;;;;;;;;;;;;;;;5072426;28;19908;-72
2022/02/16 05:21:51;;;;;;;;;;;;;;;;;;5070835;28;19924;-67
2022/02/16 05:24:18;;;;;;;;;;;;;;;;;;5072433;28;19974;-68
2022/02/16 05:26:44;;;;;;;;;;;;;;;;;;5073908;28;19908;-68
2022/02/16 05:29:10;;;;;;;;;;;;;;;;;;5072779;28;19999;-68
2022/02/16 05:31:36;;;;;;;;;;;;;;;;;;5072201;28;19920;-68
2022/02/16 05:34:02;;;;;;;;;;;;;;;;;;5072825;28;19915;-68
2022/02/16 05:36:28;;;;;;;;;;;;;;;;;;5072082;28;20009;-68
2022/02/16 05:38:54;;;;;;;;;;;;;;;;;;5072504;28;19908;-68
2022/02/16 05:41:19;;;;;;;;;;;;;;;;;;5072370;28;19908;-68
2022/02/16 05:43:45;;;;;;;;;;;;;;;;;;5073812;28;19977;-68
2022/02/16 05:46:11;;;;;;;;;;;;;;;;;;5072938;28;19915;-68
2022/02/16 05:48:37;;;;;;;;;;;;;;;;;;5071553;28;20269;-68
2022/02/16 05:51:03;;;;;;;;;;;;;;;;;;5071844;28;19960;-68
2022/02/16 05:53:29;;;;;;;;;;;;;;;;;;5073162;28;19914;-68
2022/02/16 05:55:55;;;;;;;;;;;;;;;;;;5071678;28;19987;-68
2022/02/16 05:58:21;;;;;;;;;;;;;;;;;;5074497;28;20007;-69
2022/02/16 06:00:47;;;;;;;;;;;;;;;;;;5071345;28;19995;-69
2022/02/16 06:03:13;;;;;;;;;;;;;;;;;;5073031;28;20295;-69
2022/02/16 06:05:38;;;;;;;;;;;;;;;;;;5075071;28;19912;-68
2022/02/16 06:08:04;;;;;;;;;;;;;;;;;;5073409;28;20399;-69
2022/02/16 06:10:30;;;;;;;;;;;;;;;;;;5072297;28;19916;-68
2022/02/16 06:13:00;;;;;;;;;;;;;;;;;;5072509;28;20579;-69
2022/02/16 06:15:26;;;;;;;;;;;;;;;;;;5071027;28;20006;-69
2022/02/16 06:17:52;;;;;;;;;;;;;;;;;;5073536;28;19909;-69
2022/02/16 06:20:18;;;;;;;;;;;;;;;;;;5071146;28;19908;-69
2022/02/16 06:22:44;;;;;;;;;;;;;;;;;;5071881;28;20384;-69
2022/02/16 06:25:10;;;;;;;;;;;;;;;;;;5070208;28;19916;-65
2022/02/16 06:27:36;;;;;;;;;;;;;;;;;;5071593;28;19912;-65
2022/02/16 06:30:02;;;;;;;;;;;;;;;;;;5073270;28;20260;-65
2022/02/16 06:32:28;;;;;;;;;;;;;;;;;;5072696;28;20307;-65
2022/02/16 06:34:54;;;;;;;;;;;;;;;;;;5076793;28;20434;-65
2022/02/16 06:37:19;;;;;;;;;;;;;;;;;;5071111;28;19908;-65
2022/02/16 06:39:45;;;;;;;;;;;;;;;;;;5067469;28;20419;-65
2022/02/16 06:42:12;;;;;;;;;;;;;;;;;;5070764;28;20356;-67
2022/02/16 06:44:37;;;;;;;;;;;;;;;;;;5072388;28;19944;-69
2022/02/16 06:47:03;;;;;;;;;;;;;;;;;;5068429;28;20375;-69
2022/02/16 06:49:29;;;;;;;;;;;;;;;;;;5070853;28;19916;-69
2022/02/16 06:51:55;;;;;;;;;;;;;;;;;;5067941;28;19942;-69
2022/02/16 06:54:21;;;;;;;;;;;;;;;;;;5070436;28;19930;-69
2022/02/16 06:56:47;;;;;;;;;;;;;;;;;;5074186;28;19908;-68
2022/02/16 06:59:13;;;;;;;;;;;;;;;;;;5083082;28;19914;-68
2022/02/16 07:01:39;;;;;;;;;;;;;;;;;;5076176;28;19965;-69
2022/02/16 07:04:05;;;;;;;;;;;;;;;;;;5074111;28;19929;-69
2022/02/16 07:06:31;;;;;;;;;;;;;;;;;;5069755;28;19908;-69
2022/02/16 07:08:57;;;;;;;;;;;;;;;;;;5075771;28;19948;-69
2022/02/16 07:11:23;;;;;;;;;;;;;;;;;;5071085;28;19979;-69
2022/02/16 07:13:48;;;;;;;;;;;;;;;;;;5072166;28;19920;-70
2022/02/16 07:16:14;;;;;;;;;;;;;;;;;;5072017;28;19916;-69
2022/02/16 07:18:43;;;;;;;;;;;;;;;;;;5069599;28;20316;-69
2022/02/16 07:21:09;;;;;;;;;;;;;;;;;;5075063;28;20379;-69
2022/02/16 07:23:34;;;;;;;;;;;;;;;;;;5072543;28;19923;-69
2022/02/16 07:26:00;;;;;;;;;;;;;;;;;;5073039;28;20275;-70
2022/02/16 07:28:26;;;;;;;;;;;;;;;;;;5079067;28;19919;-70
2022/02/16 07:30:52;;;;;;;;;;;;;;;;;;5075266;28;19915;-69
2022/02/16 07:33:18;;;;;;;;;;;;;;;;;;5074780;28;20385;-69
2022/02/16 07:35:44;;;;;;;;;;;;;;;;;;5077813;28;19958;-69
2022/02/16 07:38:10;;;;;;;;;;;;;;;;;;5071948;28;19962;-69
2022/02/16 07:40:36;;;;;;;;;;;;;;;;;;5070630;28;19916;-69
2022/02/16 07:43:02;;;;;;;;;;;;;;;;;;5071199;28;19992;-70
2022/02/16 07:45:28;;;;;;;;;;;;;;;;;;5067621;28;19909;-69
2022/02/16 07:47:54;;;;;;;;;;;;;;;;;;5071766;28;19954;-69
2022/02/16 07:50:20;;;;;;;;;;;;;;;;;;5069837;28;20423;-69
2022/02/16 07:52:46;;;;;;;;;;;;;;;;;;5068211;28;20012;-69
2022/02/16 07:55:12;;;;;;;;;;;;;;;;;;5070335;28;20280;-69
2022/02/16 07:57:38;;;;;;;;;;;;;;;;;;5071657;28;20015;-69
2022/02/16 08:00:04;;;;;;;;;;;;;;;;;;5079177;28;19912;-69
2022/02/16 08:02:30;;;;;;;;;;;;;;;;;;5076650;28;19912;-69
2022/02/16 08:04:56;;;;;;;;;;;;;;;;;;5075822;28;19990;-67
2022/02/16 08:07:22;;;;;;;;;;;;;;;;;;5071657;28;20414;-69
2022/02/16 08:09:48;;;;;;;;;;;;;;;;;;5068382;28;19946;-70
2022/02/16 08:12:14;;;;;;;;;;;;;;;;;;5070665;28;20309;-69
2022/02/16 08:14:40;;;;;;;;;;;;;;;;;;5086640;28;19908;-68
2022/02/16 08:17:06;;;;;;;;;;;;;;;;;;5082373;28;20357;-68
2022/02/16 08:19:32;;;;;;;;;;;;;;;;;;5082824;28;19915;-65
2022/02/16 08:21:58;;;;;;;;;;;;;;;;;;5082166;28;19916;-66
2022/02/16 08:24:24;;;;;;;;;;;;;;;;;;5084781;28;19916;-67
2022/02/16 08:26:49;;;;;;;;;;;;;;;;;;5073886;28;19915;-67
2022/02/16 08:29:15;;;;;;;;;;;;;;;;;;5061223;28;20399;-66
2022/02/16 08:31:41;;;;;;;;;;;;;;;;;;5074784;28;19912;-67
2022/02/16 08:34:07;;;;;;;;;;;;;;;;;;5080088;28;19915;-67
2022/02/16 08:36:33;;;;;;;;;;;;;;;;;;5082055;28;19912;-67
2022/02/16 08:38:59;;;;;;;;;;;;;;;;;;5089989;28;20371;-66
2022/02/16 08:41:25;;;;;;;;;;;;;;;;;;5081847;28;19919;-66
2022/02/16 08:43:51;;;;;;;;;;;;;;;;;;5081875;28;19915;-66
2022/02/16 08:46:17;;;;;;;;;;;;;;;;;;5074782;28;19915;-67
2022/02/16 08:48:43;;;;;;;;;;;;;;;;;;5080941;28;19908;-67
2022/02/16 08:51:09;;;;;;;;;;;;;;;;;;5087622;28;19935;-66
2022/02/16 08:53:35;;;;;;;;;;;;;;;;;;5084769;28;19908;-67
2022/02/16 08:56:01;;;;;;;;;;;;;;;;;;5082305;28;19919;-68
2022/02/16 08:58:27;;;;;;;;;;;;;;;;;;5081232;28;19908;-67
2022/02/16 09:00:53;;;;;;;;;;;;;;;;;;5081402;28;20213;-67
2022/02/16 09:03:19;;;;;;;;;;;;;;;;;;5088647;28;19904;-67
2022/02/16 09:05:45;;;;;;;;;;;;;;;;;;5090230;28;19929;-66
2022/02/16 09:08:10;;;;;;;;;;;;;;;;;;5084870;28;20286;-65
2022/02/16 09:10:36;;;;;;;;;;;;;;;;;;5085341;28;20022;-66
2022/02/16 09:13:02;;;;;;;;;;;;;;;;;;5085231;28;19915;-66
2022/02/16 09:15:28;;;;;;;;;;;;;;;;;;5085396;28;19939;-66
2022/02/16 09:17:54;;;;;;;;;;;;;;;;;;5092882;28;19904;-66
2022/02/16 09:20:20;;;;;;;;;;;;;;;;;;5084562;28;20252;-66
2022/02/16 09:22:46;;;;;;;;;;;;;;;;;;5079407;28;20063;-66
2022/02/16 09:25:11;;;;;;;;;;;;;;;;;;5072815;28;19909;-66
2022/02/16 09:27:37;;;;;;;;;;;;;;;;;;5072679;28;19916;-67
2022/02/16 09:30:03;;;;;;;;;;;;;;;;;;5074887;28;19912;-68
2022/02/16 09:32:29;;;;;;;;;;;;;;;;;;5075236;28;19962;-66
2022/02/16 09:34:55;;;;;;;;;;;;;;;;;;5074325;28;19915;-67
2022/02/16 09:37:21;;;;;;;;;;;;;;;;;;5074426;28;19912;-67
2022/02/16 09:39:47;;;;;;;;;;;;;;;;;;5072005;28;19987;-67
2022/02/16 09:42:13;;;;;;;;;;;;;;;;;;5073543;28;20276;-67
2022/02/16 09:44:39;;;;;;;;;;;;;;;;;;5075916;28;19955;-67
2022/02/16 09:47:05;;;;;;;;;;;;;;;;;;5074301;28;20416;-67
2022/02/16 09:49:31;;;;;;;;;;;;;;;;;;5074513;28;19958;-67
2022/02/16 09:51:57;;;;;;;;;;;;;;;;;;5071839;28;19912;-67
2022/02/16 09:54:23;;;;;;;;;;;;;;;;;;5072779;28;19933;-67
2022/02/16 09:56:49;;;;;;;;;;;;;;;;;;5076184;28;19908;-67
2022/02/16 09:59:14;;;;;;;;;;;;;;;;;;5074101;28;20327;-67
2022/02/16 10:01:40;;;;;;;;;;;;;;;;;;5073427;28;19943;-67
2022/02/16 10:04:10;;;;;;;;;;;;;;;;;;5071836;28;19904;-68
2022/02/16 10:06:36;;;;;;;;;;;;;;;;;;5072087;28;19916;-66
2022/02/16 10:09:02;;;;;;;;;;;;;;;;;;5074754;28;19908;-66
2022/02/16 10:11:28;;;;;;;;;;;;;;;;;;5084527;28;19989;-67
2022/02/16 10:13:54;;;;;;;;;;;;;;;;;;5078319;28;19915;-66
2022/02/16 10:16:20;;;;;;;;;;;;;;;;;;5083422;28;19908;-65
2022/02/16 10:18:46;;;;;;;;;;;;;;;;;;5082014;28;19987;-66
2022/02/16 10:21:11;;;;;;;;;;;;;;;;;;5087228;28;20270;-65
2022/02/16 10:23:37;;;;;;;;;;;;;;;;;;5081215;28;19912;-66
2022/02/16 10:26:05;;;;;;;;;;;;;;;;;;5081943;28;19999;-66
2022/02/16 10:28:31;;;;;;;;;;;;;;;;;;5081981;28;19915;-65
2022/02/16 10:30:56;;;;;;;;;;;;;;;;;;5081617;28;19920;-65
2022/02/16 10:33:22;;;;;;;;;;;;;;;;;;5085175;28;20351;-65
2022/02/16 10:35:48;;;;;;;;;;;;;;;;;;5088676;28;20367;-65
2022/02/16 10:38:14;;;;;;;;;;;;;;;;;;5083186;28;20297;-65
2022/02/16 10:40:40;;;;;;;;;;;;;;;;;;5082901;28;20540;-64
2022/02/16 10:43:06;;;;;;;;;;;;;;;;;;5083374;28;19908;-65
2022/02/16 10:45:32;;;;;;;;;;;;;;;;;;5083834;28;19909;-64
2022/02/16 10:48:00;;;;;;;;;;;;;;;;;;5091737;28;19943;-64
2022/02/16 10:50:25;;;;;;;;;;;;;;;;;;5083091;28;19920;-65
2022/02/16 10:52:53;;;;;;;;;;;;;;;;;;5083597;28;19911;-65
2022/02/16 10:55:19;;;;;;;;;;;;;;;;;;5083445;28;19911;-64
2022/02/16 10:57:45;;;;;;;;;;;;;;;;;;5083092;28;20261;-65
2022/02/16 11:00:10;;;;;;;;;;;;;;;;;;5069212;28;20287;-66
2022/02/16 11:02:36;;;;;;;;;;;;;;;;;;5083203;28;19908;-66
2022/02/16 11:05:02;;;;;;;;;;;;;;;;;;5063949;28;19908;-65
2022/02/16 11:07:28;;;;;;;;;;;;;;;;;;5067129;28;19912;-65
2022/02/16 11:09:54;;;;;;;;;;;;;;;;;;5066462;28;20046;-69
2022/02/16 11:12:20;;;;;;;;;;;;;;;;;;5067208;28;20375;-70
2022/02/16 11:14:46;;;;;;;;;;;;;;;;;;5053982;28;19931;-65
2022/02/16 11:17:12;;;;;;;;;;;;;;;;;;5055150;28;19954;-63
2022/02/16 11:19:38;;;;;;;;;;;;;;;;;;5054637;28;19999;-67
2022/02/16 11:22:04;;;;;;;;;;;;;;;;;;5054469;28;19923;-65
2022/02/16 11:24:30;;;;;;;;;;;;;;;;;;5065886;28;19948;-67
2022/02/16 11:26:56;;;;;;;;;;;;;;;;;;5053772;28;19915;-69
2022/02/16 11:29:22;;;;;;;;;;;;;;;;;;5056294;28;19909;-67
2022/02/16 11:31:48;;;;;;;;;;;;;;;;;;5067580;28;19912;-67
2022/02/16 11:34:14;;;;;;;;;;;;;;;;;;5066995;28;19944;-67
2022/02/16 11:36:40;;;;;;;;;;;;;;;;;;5069211;28;19931;-68
2022/02/16 11:39:06;;;;;;;;;;;;;;;;;;5070727;28;19953;-67
2022/02/16 11:41:32;;;;;;;;;;;;;;;;;;5069928;28;19905;-67
2022/02/16 11:44:00;;;;;;;;;;;;;;;;;;5072038;28;19912;-68
2022/02/16 11:46:26;;;;;;;;;;;;;;;;;;5071710;28;19915;-68
2022/02/16 11:48:52;;;;;;;;;;;;;;;;;;5070767;28;19916;-68
2022/02/16 11:51:18;;;;;;;;;;;;;;;;;;5068457;28;19959;-67
2022/02/16 11:53:44;;;;;;;;;;;;;;;;;;5085251;28;20551;-69
2022/02/16 11:56:10;;;;;;;;;;;;;;;;;;5071797;28;19931;-66
2022/02/16 11:58:35;;;;;;;;;;;;;;;;;;5071798;28;19908;-68
2022/02/16 12:01:03;;;;;;;;;;;;;;;;;;5069780;28;19908;-66
2022/02/16 12:03:29;;;;;;;;;;;;;;;;;;5069087;28;20296;-65
2022/02/16 12:05:55;;;;;;;;;;;;;;;;;;5073134;28;19991;-67
2022/02/16 12:08:21;;;;;;;;;;;;;;;;;;5071544;28;19969;-65
2022/02/16 12:10:47;;;;;;;;;;;;;;;;;;5072027;28;19922;-66
2022/02/16 12:13:13;;;;;;;;;;;;;;;;;;5070819;28;19928;-67
2022/02/16 12:15:39;;;;;;;;;;;;;;;;;;5069603;28;19913;-67
2022/02/16 12:18:05;;;;;;;;;;;;;;;;;;5071116;28;19908;-66
2022/02/16 12:20:31;;;;;;;;;;;;;;;;;;5072678;28;19942;-66
2022/02/16 12:22:57;;;;;;;;;;;;;;;;;;5065633;28;19959;-66
2022/02/16 12:25:23;;;;;;;;;;;;;;;;;;5069302;28;19923;-66
2022/02/16 12:27:48;;;;;;;;;;;;;;;;;;5068953;28;19908;-66
2022/02/16 12:30:14;;;;;;;;;;;;;;;;;;5068880;28;19951;-67
2022/02/16 12:32:40;;;;;;;;;;;;;;;;;;5069808;28;19969;-66
2022/02/16 12:35:07;;;;;;;;;;;;;;;;;;5068626;28;19909;-66
2022/02/16 12:37:33;;;;;;;;;;;;;;;;;;5071226;28;19991;-65
2022/02/16 12:40:00;;;;;;;;;;;;;;;;;;5072987;28;20475;-66
2022/02/16 12:42:26;;;;;;;;;;;;;;;;;;5071085;28;20257;-66
2022/02/16 12:44:52;;;;;;;;;;;;;;;;;;5074803;28;19904;-65
2022/02/16 12:47:18;;;;;;;;;;;;;;;;;;5072795;28;20371;-68
2022/02/16 12:49:43;;;;;;;;;;;;;;;;;;5072898;28;19919;-68
2022/02/16 12:52:10;;;;;;;;;;;;;;;;;;5074788;28;20382;-68
2022/02/16 12:54:36;;;;;;;;;;;;;;;;;;5085008;28;19916;-68
2022/02/16 12:57:01;;;;;;;;;;;;;;;;;;5093229;28;20373;-67
2022/02/16 12:59:27;;;;;;;;;;;;;;;;;;5088094;28;19958;-67
2022/02/16 13:01:57;;;;;;;;;;;;;;;;;;5085683;28;19991;-67
2022/02/16 13:04:23;;;;;;;;;;;;;;;;;;5085280;28;19957;-67
2022/02/16 13:06:50;;;;;;;;;;;;;;;;;;5085426;28;19990;-66
2022/02/16 13:09:18;;;;;;;;;;;;;;;;;;5081751;28;19966;-67
2022/02/16 13:11:44;;;;;;;;;;;;;;;;;;5073627;28;20368;-67
2022/02/16 13:14:10;;;;;;;;;;;;;;;;;;5072079;28;20054;-67
2022/02/16 13:16:35;;;;;;;;;;;;;;;;;;5071996;28;20419;-67
2022/02/16 13:19:02;;;;;;;;;;;;;;;;;;5070813;28;19907;-64
2022/02/16 13:21:28;;;;;;;;;;;;;;;;;;5070278;28;19916;-65
2022/02/16 13:23:55;;;;;;;;;;;;;;;;;;5071025;28;20481;-66
2022/02/16 13:26:21;;;;;;;;;;;;;;;;;;5068998;28;20009;-67
2022/02/16 13:28:47;;;;;;;;;;;;;;;;;;5069929;28;20232;-65
2022/02/16 13:31:13;;;;;;;;;;;;;;;;;;5069198;28;19927;-65
2022/02/16 13:33:39;;;;;;;;;;;;;;;;;;5107232;22;19947;-95
2022/02/16 13:36:05;;;;;;;;;;;;;;;;;;5079112;28;19961;-93
2022/02/16 13:38:34;;;;;;;;;;;;;;;;;;5079533;28;19915;-95
2022/02/16 13:41:00;;;;;;;;;;;;;;;;;;5079319;28;19988;-95
2022/02/16 13:43:26;;;;;;;;;;;;;;;;;;5077914;28;19897;-96
2022/02/16 13:45:52;;;;;;;;;;;;;;;;;;5075121;28;19909;-95
2022/02/16 13:48:18;;;;;;;;;;;;;;;;;;5074988;28;19912;-94
2022/02/16 13:50:44;;;;;;;;;;;;;;;;;;5077329;28;19901;-94
2022/02/16 13:53:10;;;;;;;;;;;;;;;;;;5077558;28;19896;-95
2022/02/16 13:55:36;;;;;;;;;;;;;;;;;;5072528;28;19908;-92
2022/02/16 13:58:01;;;;;;;;;;;;;;;;;;5074960;28;19901;-89
2022/02/16 14:00:27;;;;;;;;;;;;;;;;;;5077660;28;19912;-91
2022/02/16 14:02:53;;;;;;;;;;;;;;;;;;5083754;22;20398;-65
2022/02/16 14:05:24;;;;;;;;;;;;;;;;;;5077037;28;19907;-68
2022/02/16 14:07:50;;;;;;;;;;;;;;;;;;5077352;28;19977;-68
2022/02/16 14:10:15;;;;;;;;;;;;;;;;;;5072834;28;19920;-68
2022/02/16 14:12:43;;;;;;;;;;;;;;;;;;5083218;28;19916;-71
2022/02/16 14:15:09;;;;;;;;;;;;;;;;;;5072288;28;19920;-65
2022/02/16 14:17:34;;;;;;;;;;;;;;;;;;5071937;28;19904;-66
2022/02/16 14:20:00;;;;;;;;;;;;;;;;;;5072767;28;20252;-68
2022/02/16 14:22:27;;;;;;;;;;;;;;;;;;5072711;28;19912;-69
2022/02/16 14:24:53;;;;;;;;;;;;;;;;;;5070758;28;20301;-69
2022/02/16 14:27:18;;;;;;;;;;;;;;;;;;5067027;28;19908;-69
2022/02/16 14:29:49;;;;;;;;;;;;;;;;;;5074954;28;19915;-72
2022/02/16 14:32:15;;;;;;;;;;;;;;;;;;5072443;28;19935;-70
2022/02/16 14:34:41;;;;;;;;;;;;;;;;;;5071959;28;20970;-71
2022/02/16 14:37:07;;;;;;;;;;;;;;;;;;5072251;28;20031;-68
2022/02/16 14:39:33;;;;;;;;;;;;;;;;;;5068202;28;20000;-67
2022/02/16 14:41:58;;;;;;;;;;;;;;;;;;5074497;28;19908;-68
2022/02/16 14:44:24;;;;;;;;;;;;;;;;;;5071846;28;19912;-67
2022/02/16 14:46:50;;;;;;;;;;;;;;;;;;5071989;28;19908;-67
2022/02/16 14:49:16;;;;;;;;;;;;;;;;;;5071541;28;20267;-68
2022/02/16 14:51:42;;;;;;;;;;;;;;;;;;5068608;28;20333;-68
2022/02/16 14:54:08;;;;;;;;;;;;;;;;;;5072777;28;19904;-68
2022/02/16 14:56:34;;;;;;;;;;;;;;;;;;5068930;28;20650;-68
2022/02/16 14:59:01;;;;;;;;;;;;;;;;;;5070287;28;20029;-69
2022/02/16 15:01:27;;;;;;;;;;;;;;;;;;5066913;28;19991;-70
2022/02/16 15:03:53;;;;;;;;;;;;;;;;;;5067178;28;20012;-70
2022/02/16 15:06:18;;;;;;;;;;;;;;;;;;5068091;28;19912;-65
2022/02/16 15:08:44;;;;;;;;;;;;;;;;;;5068803;28;20351;-67
2022/02/16 15:11:10;;;;;;;;;;;;;;;;;;5065848;28;20019;-64
2022/02/16 15:13:37;;;;;;;;;;;;;;;;;;5067257;28;19959;-64
2022/02/16 15:16:03;;;;;;;;;;;;;;;;;;5066666;28;20390;-65
2022/02/16 15:18:28;;;;;;;;;;;;;;;;;;5066974;28;20007;-65
2022/02/16 15:20:54;;;;;;;;;;;;;;;;;;5069539;28;19904;-65
2022/02/16 15:23:20;;;;;;;;;;;;;;;;;;5066380;28;19909;-65
2022/02/16 15:25:46;;;;;;;;;;;;;;;;;;5066485;28;20460;-68
2022/02/16 15:28:13;;;;;;;;;;;;;;;;;;5066645;28;19908;-66
2022/02/16 15:30:40;;;;;;;;;;;;;;;;;;5065962;28;20293;-66
2022/02/16 15:33:06;;;;;;;;;;;;;;;;;;5069389;28;19910;-66
2022/02/16 15:35:32;;;;;;;;;;;;;;;;;;5066126;28;19904;-66
2022/02/16 15:37:58;;;;;;;;;;;;;;;;;;5065027;28;19976;-64
2022/02/16 15:40:24;;;;;;;;;;;;;;;;;;5064634;28;19916;-68
2022/02/16 15:42:50;;;;;;;;;;;;;;;;;;5064976;28;20321;-67
2022/02/16 15:45:16;;;;;;;;;;;;;;;;;;5066749;28;19908;-68
2022/02/16 15:47:42;;;;;;;;;;;;;;;;;;5066926;28;19904;-69
2022/02/16 15:50:08;;;;;;;;;;;;;;;;;;5065373;28;20450;-69
2022/02/16 15:52:34;;;;;;;;;;;;;;;;;;5065157;28;19909;-69
2022/02/16 15:55:00;;;;;;;;;;;;;;;;;;5066507;28;19997;-68
2022/02/16 15:57:28;;;;;;;;;;;;;;;;;;5067769;28;19991;-68
2022/02/16 15:59:55;;;;;;;;;;;;;;;;;;5069495;28;20359;-69
2022/02/16 16:02:21;;;;;;;;;;;;;;;;;;5066239;28;20279;-68
2022/02/16 16:04:47;;;;;;;;;;;;;;;;;;5066805;28;19913;-68
2022/02/16 16:07:14;;;;;;;;;;;;;;;;;;5066525;28;19991;-69
2022/02/16 16:09:39;;;;;;;;;;;;;;;;;;5066494;28;19953;-69
2022/02/16 16:12:06;;;;;;;;;;;;;;;;;;5070988;28;19908;-69
2022/02/16 16:14:31;;;;;;;;;;;;;;;;;;5071241;28;19920;-69
2022/02/16 16:16:57;;;;;;;;;;;;;;;;;;5070511;28;19909;-69
2022/02/16 16:19:23;;;;;;;;;;;;;;;;;;5072033;28;20685;-69
2022/02/16 16:21:49;;;;;;;;;;;;;;;;;;5085358;28;19957;-69
2022/02/16 16:24:15;;;;;;;;;;;;;;;;;;5074874;28;20386;-70
2022/02/16 16:26:41;;;;;;;;;;;;;;;;;;5076131;28;19959;-69
2022/02/16 16:29:09;;;;;;;;;;;;;;;;;;5072238;28;20471;-69
2022/02/16 16:31:34;;;;;;;;;;;;;;;;;;5074882;28;19916;-70
2022/02/16 16:34:00;;;;;;;;;;;;;;;;;;5074026;28;19968;-70
2022/02/16 16:36:26;;;;;;;;;;;;;;;;;;5071423;28;19927;-69